地図

経路データ

SID SEASON NUMBER BASIN SUBBASIN NAME ISO_TIME NATURE LAT LON WMO_WIND WMO_PRES WMO_AGENCY TRACK_TYPE DIST2LAND LANDFALL IFLAG USA_AGENCY USA_ATCF_ID USA_LAT USA_LON USA_RECORD USA_STATUS USA_WIND USA_PRES USA_SSHS USA_R34_NE USA_R34_SE USA_R34_SW USA_R34_NW USA_R50_NE USA_R50_SE USA_R50_SW USA_R50_NW USA_R64_NE USA_R64_SE USA_R64_SW USA_R64_NW USA_POCI USA_ROCI USA_RMW USA_EYE TOKYO_LAT TOKYO_LON TOKYO_GRADE TOKYO_WIND TOKYO_PRES TOKYO_R50_DIR TOKYO_R50_LONG TOKYO_R50_SHORT TOKYO_R30_DIR TOKYO_R30_LONG TOKYO_R30_SHORT TOKYO_LAND CMA_LAT CMA_LON CMA_CAT CMA_WIND CMA_PRES HKO_LAT HKO_LON HKO_CAT HKO_WIND HKO_PRES NEWDELHI_LAT NEWDELHI_LON NEWDELHI_GRADE NEWDELHI_WIND NEWDELHI_PRES NEWDELHI_CI NEWDELHI_DP NEWDELHI_POCI REUNION_LAT REUNION_LON REUNION_TYPE REUNION_WIND REUNION_PRES REUNION_TNUM REUNION_CI REUNION_RMW REUNION_R34_NE REUNION_R34_SE REUNION_R34_SW REUNION_R34_NW REUNION_R50_NE REUNION_R50_SE REUNION_R50_SW REUNION_R50_NW REUNION_R64_NE REUNION_R64_SE REUNION_R64_SW REUNION_R64_NW BOM_LAT BOM_LON BOM_TYPE BOM_WIND BOM_PRES BOM_TNUM BOM_CI BOM_RMW BOM_R34_NE BOM_R34_SE BOM_R34_SW BOM_R34_NW BOM_R50_NE BOM_R50_SE BOM_R50_SW BOM_R50_NW BOM_R64_NE BOM_R64_SE BOM_R64_SW BOM_R64_NW BOM_ROCI BOM_POCI BOM_EYE BOM_POS_METHOD BOM_PRES_METHOD NADI_LAT NADI_LON NADI_CAT NADI_WIND NADI_PRES WELLINGTON_LAT WELLINGTON_LON WELLINGTON_WIND WELLINGTON_PRES DS824_LAT DS824_LON DS824_STAGE DS824_WIND DS824_PRES TD9636_LAT TD9636_LON TD9636_STAGE TD9636_WIND TD9636_PRES TD9635_LAT TD9635_LON TD9635_WIND TD9635_PRES TD9635_ROCI NEUMANN_LAT NEUMANN_LON NEUMANN_CLASS NEUMANN_WIND NEUMANN_PRES MLC_LAT MLC_LON MLC_CLASS MLC_WIND MLC_PRES USA_GUST BOM_GUST BOM_GUST_PER REUNION_GUST REUNION_GUST_PER USA_SEAHGT USA_SEARAD_NE USA_SEARAD_SE USA_SEARAD_SW USA_SEARAD_NW STORM_SPEED STORM_DIR
1959226N16140 1959 60 WP MM HOPE 1959-08-13 18:00:00 TS 16.4000 140.200 main 1652 1600 __O___________ -1 16.4000 140.200 0 1007 11 272
1959226N16140 1959 60 WP MM HOPE 1959-08-13 21:00:00 TS 16.4178 139.635 main 1590 1539 __P___________ -1 16.4178 139.635 0 1007 11 270
1959226N16140 1959 60 WP MM HOPE 1959-08-14 00:00:00 TS 16.4000 139.100 main 1539 1484 __O___________ -1 16.4000 139.100 0 1007 10 264
1959226N16140 1959 60 WP MM HOPE 1959-08-14 03:00:00 TS 16.3224 138.620 main 1484 1440 __P___________ -1 16.3224 138.620 0 1006 9 257
1959226N16140 1959 60 WP MM HOPE 1959-08-14 06:00:00 TS 16.2000 138.200 main 1440 1406 __O___________ -1 16.2000 138.200 0 1006 8 251
1959226N16140 1959 60 WP MM HOPE 1959-08-14 09:00:00 TS 16.0648 137.850 main 1406 1359 __P___________ -1 16.0648 137.850 0 1006 7 246
1959226N16140 1959 60 WP MM HOPE 1959-08-14 12:00:00 TS 15.9000 137.500 main 1359 1312 __O___________ -1 15.9000 137.500 0 1006 8 243
1959226N16140 1959 60 WP MM HOPE 1959-08-14 15:00:00 TS 15.6850 137.065 main 1312 1254 __P___________ -1 15.6850 137.065 0 1006 10 245
1959226N16140 1959 60 WP MM HOPE 1959-08-14 18:00:00 TS 15.5000 136.600 main 1254 1210 __O___________ -1 15.5000 136.600 0 1006 9 253
1959226N16140 1959 60 WP MM HOPE 1959-08-14 21:00:00 TS 15.4125 136.143 main 1199 1158 __P___________ -1 15.4125 136.143 0 1006 9 263
1959226N16140 1959 60 WP MM HOPE 1959-08-15 00:00:00 TS 15.4000 135.700 main 1158 1117 __O___________ -1 15.4000 135.700 0 1006 8 270
1959226N16140 1959 60 WP MM HOPE 1959-08-15 03:00:00 TS 15.4124 135.285 main 1117 1080 __P___________ -1 15.4124 135.285 0 1005 8 277
1959226N16140 1959 60 WP MM HOPE 1959-08-15 06:00:00 TS 15.5000 134.900 main 1080 1053 __O___________ -1 15.5000 134.900 0 1005 8 291
1959226N16140 1959 60 WP MM HOPE 1959-08-15 09:00:00 TS 15.6849 134.535 main 1047 1026 __P___________ -1 15.6849 134.535 0 1005 8 301
1959226N16140 1959 60 WP MM HOPE 1959-08-15 12:00:00 TS 15.9000 134.200 main 1026 1001 __O___________ -1 15.9000 134.200 0 1005 7 301
1959226N16140 1959 60 WP MM HOPE 1959-08-15 15:00:00 TS 16.0499 133.900 main 1001 981 __P___________ -1 16.0499 133.900 0 1005 7 298
1959226N16140 1959 60 WP MM HOPE 1959-08-15 18:00:00 TS 16.2000 133.600 main 981 963 __O___________ -1 16.2000 133.600 0 1005 7 301
1959226N16140 1959 60 WP MM HOPE 1959-08-15 21:00:00 TS 16.4149 133.273 main 963 937 __P___________ -1 16.4149 133.273 0 1005 8 301
1959226N16140 1959 60 WP MM HOPE 1959-08-16 00:00:00 TS 16.6000 132.900 main 937 906 __O___________ -1 16.6000 132.900 0 1005 8 289
1959226N16140 1959 60 WP MM HOPE 1959-08-16 03:00:00 TS 16.6648 132.495 main 906 862 __P___________ -1 16.6648 132.495 0 1003 9 277
1959226N16140 1959 60 WP MM HOPE 1959-08-16 06:00:00 TS 16.7000 132.000 main 862 826 __O___________ -1 16.7000 132.000 0 1002 10 276
1959226N16140 1959 60 WP MM HOPE 1959-08-16 09:00:00 TS 16.7694 131.440 main 817 754 __P___________ -1 16.7694 131.440 0 1002 13 279
1959226N16140 1959 60 WP MM HOPE 1959-08-16 12:00:00 TS 16.9000 130.700 main 754 680 __O___________ -1 16.9000 130.700 0 1002 17 283
1959226N16140 1959 60 WP MM HOPE 1959-08-16 15:00:00 TS 17.1349 129.733 main 671 604 __P___________ -1 17.1349 129.733 0 1001 21 284
1959226N16140 1959 60 WP MM HOPE 1959-08-16 18:00:00 TS 17.4000 128.600 main 596 528 __O___________ -1 17.4000 128.600 0 1000 23 283
1959226N16140 1959 60 WP MM HOPE 1959-08-16 21:00:00 TS 17.6299 127.408 main 521 413 __P___________ -1 17.6299 127.408 0 1000 23 280
1959226N16140 1959 60 WP MM HOPE 1959-08-17 00:00:00 TS 17.8000 126.200 main 402 293 __O___________ -1 17.8000 126.200 0 1000 22 276
1959226N16140 1959 60 WP MM HOPE 1959-08-17 03:00:00 TS 17.8719 125.070 main 293 192 __P___________ -1 17.8719 125.070 0 1000 21 273
1959226N16140 1959 60 WP MM HOPE 1959-08-17 06:00:00 TS 17.9000 124.000 main 182 86 __O___________ -1 17.9000 124.000 0 1000 20 272
1959226N16140 1959 60 WP MM HOPE 1959-08-17 09:00:00 TS 17.9491 122.992 main 86 0 __P___________ -1 17.9491 122.992 0 999 19 273
1959226N16140 1959 60 WP MM HOPE 1959-08-17 12:00:00 TS 18.0000 122.000 main 0 0 __O___________ -1 18.0000 122.000 0 999 20 273
1959226N16140 1959 60 WP MM HOPE 1959-08-17 15:00:00 TS 18.0503 120.905 main 0 0 __P___________ -1 18.0503 120.905 0 999 20 273
1959226N16140 1959 60 WP MM HOPE 1959-08-17 18:00:00 TS 18.1000 119.900 main 63 63 __O___________ -1 18.1000 119.900 0 999 17 274
1959226N16140 1959 60 WP MM HOPE 1959-08-17 21:00:00 TS 18.1565 119.155 main 134 134 __P___________ -1 18.1565 119.155 0 999 13 274
1959226N16140 1959 60 WP MM HOPE 1959-08-18 00:00:00 TS 18.2000 118.500 main 201 201 __O___________ -1 18.2000 118.500 0 999 13 271
1959226N16140 1959 60 WP MM HOPE 1959-08-18 03:00:00 TS 18.1850 117.742 main 283 283 __P___________ -1 18.1850 117.742 0 998 14 270
1959226N16140 1959 60 WP MM HOPE 1959-08-18 06:00:00 TS 18.2000 117.000 main 355 355 __O___________ -1 18.2000 117.000 1 29 997 14 276
1959226N16140 1959 60 WP MM HOPE 1959-08-18 09:00:00 TS 18.3272 116.328 main 430 430 __P___________ -1 18.3272 116.328 1 29 997 13 284
1959226N16140 1959 60 WP MM HOPE 1959-08-18 12:00:00 TS 18.5000 115.700 main 449 422 __O___________ -1 18.5000 115.700 1 29 997 12 285
1959226N16140 1959 60 WP MM HOPE 1959-08-18 15:00:00 TS 18.6497 115.092 main 422 378 __P___________ -1 18.6497 115.092 1 29 997 12 285
1959226N16140 1959 60 WP MM HOPE 1959-08-18 18:00:00 TS 18.8000 114.500 main 378 324 __O___________ -1 18.8000 114.500 1 29 998 11 285
1959226N16140 1959 60 WP MM HOPE 1959-08-18 21:00:00 TS 18.9344 113.937 main 314 247 __P___________ -1 18.9344 113.937 1 26 998 12 285
1959226N16140 1959 60 WP MM HOPE 1959-08-19 00:00:00 TS 19.1000 113.300 main 247 171 __O___________ -1 19.1000 113.300 1 23 998 14 288
1959226N16140 1959 60 WP MM HOPE 1959-08-19 03:00:00 TS 19.3570 112.525 main 158 73 __P___________ -1 19.3570 112.525 1 21 999 17 287
1959226N16140 1959 60 WP MM HOPE 1959-08-19 06:00:00 TS 19.6000 111.600 main 62 0 __O___________ -1 19.6000 111.600 0 19 1000 20 281
1959226N16140 1959 60 WP MM HOPE 1959-08-19 09:00:00 TS 19.7158 110.485 main 0 0 __P___________ -1 19.7158 110.485 0 18 1000 21 276
1959226N16140 1959 60 WP MM HOPE 1959-08-19 12:00:00 TS 19.8000 109.400 main 0 0 __O___________ -1 19.8000 109.400 0 17 1001 18 277
1959226N16140 1959 60 WP MM HOPE 1959-08-19 15:00:00 TS 19.9339 108.597 main 54 54 __P___________ -1 19.9339 108.597 0 1001 14 282
1959226N16140 1959 60 WP MM HOPE 1959-08-19 18:00:00 TS 20.1000 107.900 main 113 61 __O___________ -1 20.1000 107.900 0 1001 14 285
1959226N16140 1959 60 WP MM HOPE 1959-08-19 21:00:00 TS 20.2935 107.168 main 61 0 __P___________ -1 20.2935 107.168 0 1001 15 286
1959226N16140 1959 60 WP MM HOPE 1959-08-20 00:00:00 TS 20.5000 106.400 main 0 __O___________ -1 20.5000 106.400 0 1001 15 286

デジタル台風データ・検索

IBTrACS Databaseについて

本データベースは、米国NOAAが公開する1842年以降の世界の熱帯低気圧のベストトラックデータアーカイブInternational Best Track Archive for Climate Stewardship (IBTrACS)を、ウェブで閲覧しやすい形式に変換したものです。

最終更新日:2021-10-21